Springdale, SC

11:40 AM EDT on March 27, 2015 (GMT -0400)
Columbia Metro | | Change Station
CLOSE
Current Station
Airport
Location: Columbia,
Elevation: 223 ft
Nearby Weather Stations

Elev 223 ft 33.94 °N, 81.12 °W | Updated 12 minutes ago

Overcast
Overcast
59 °F
Feels Like 59 °F
N
9
Wind Variable Wind from North
Gusts 20 mph

Today
High -- | Low -- °F
--% Chance of Precip.
Yesterday
High -- | Low -- °F
Precip. -- in
7:18 AM 7:41 PM
First Quarter, 53% visible
Pressure 29.69 in
Visibility 10.0 miles
Clouds Scattered Clouds 800 ft
Mostly Cloudy 2200 ft
Overcast 3600 ft
Dew Point 55 °F
Humidity 87%
Rainfall 0.16 in
Snow Depth Not available.
UV 2 out of 12
Pollen 7.60 out of 12
Air Quality Not available.
Flu Activity Not available.
SPECI KCAE 271528Z 35008G17KT 10SM SCT008 BKN022 OVC036 15/13 A2969 RMK AO2 T01500128

More Conditions Fewer Conditions

Pressure 29.69 in
Visibility 10.0 miles
Clouds Scattered Clouds 800 ft
Mostly Cloudy 2200 ft
Overcast 3600 ft
Dew Point 55 °F
Humidity 87%
Rainfall 0.16 in
Snow Depth Not available.
UV 2 out of 12
Pollen 7.60 out of 12
Air Quality Not available.
Flu Activity Not available.
SPECI KCAE 271528Z 35008G17KT 10SM SCT008 BKN022 OVC036 15/13 A2969 RMK AO2 T01500128

More Conditions Fewer Conditions

10-Day Weather Forecast

Almanac

Astronomy

Mar. 27, 2015 Rise Set
Actual Time
Civil Twilight
Nautical Twilight
Astronomical Twilight
Moon
Length of Visible Light
Length of Day
Tomorrow will be .
, % of the Moon is Illuminated

Today's Extremes

State Highs State Lows

Community

WunderPhotos

Upload Photos

1,808,762 photos uploaded!

WunderBlogs® & News

Nearby

Air Quality

  Air Quality AQ Index Pollutant
Not available.

Snow Depth

Station Depth Elevation

Earthquake Activity

City Distance Mag. Time & Date
Minimum magnitude displayed is 2.5.

Coastal Water Temperatures

Place Temperature

Stations

Nearby Weather Stations

Station Location Temp. Windchill Dew Point Humidity Wind Precip. Elev Updated Type